sensor_id;sensor_type;location;lat;lon;timestamp;pressure;altitude;pressure_sealevel;temperature;humidity
79376;BME280;68846;53.150;18.136;2023-07-13T00:01:31;100654.99;;;18.26;76.90
79376;BME280;68846;53.150;18.136;2023-07-13T00:03:58;100651.77;;;18.26;76.83
79376;BME280;68846;53.150;18.136;2023-07-13T00:06:25;100646.59;;;18.26;76.62
79376;BME280;68846;53.150;18.136;2023-07-13T00:08:51;100644.80;;;18.26;76.71
79376;BME280;68846;53.150;18.136;2023-07-13T00:11:17;100645.86;;;18.27;76.67
79376;BME280;68846;53.150;18.136;2023-07-13T00:13:44;100649.61;;;18.27;76.80
79376;BME280;68846;53.150;18.136;2023-07-13T00:16:11;100648.52;;;18.19;76.95
79376;BME280;68846;53.150;18.136;2023-07-13T00:18:37;100651.70;;;18.12;76.94
79376;BME280;68846;53.150;18.136;2023-07-13T00:21:04;100651.50;;;18.04;77.07
79376;BME280;68846;53.150;18.136;2023-07-13T00:23:37;100658.55;;;18.00;77.18
79376;BME280;68846;53.150;18.136;2023-07-13T00:26:06;100654.10;;;17.99;77.38
79376;BME280;68846;53.150;18.136;2023-07-13T00:28:33;100656.38;;;18.02;77.40
79376;BME280;68846;53.150;18.136;2023-07-13T00:31:00;100661.83;;;18.05;77.19
79376;BME280;68846;53.150;18.136;2023-07-13T00:33:28;100663.21;;;18.07;77.44
79376;BME280;68846;53.150;18.136;2023-07-13T00:35:57;100663.75;;;18.07;77.34
79376;BME280;68846;53.150;18.136;2023-07-13T00:38:24;100667.15;;;18.06;77.35
79376;BME280;68846;53.150;18.136;2023-07-13T00:40:50;100671.98;;;18.05;77.24
79376;BME280;68846;53.150;18.136;2023-07-13T00:43:20;100667.02;;;17.95;77.38
79376;BME280;68846;53.150;18.136;2023-07-13T00:48:24;100681.23;;;17.97;77.48
79376;BME280;68846;53.150;18.136;2023-07-13T00:50:55;100690.16;;;17.96;77.32
79376;BME280;68846;53.150;18.136;2023-07-13T00:53:23;100682.83;;;17.97;77.37
79376;BME280;68846;53.150;18.136;2023-07-13T00:55:53;100696.77;;;17.95;77.27
79376;BME280;68846;53.150;18.136;2023-07-13T00:58:22;100705.38;;;17.92;77.18
79376;BME280;68846;53.150;18.136;2023-07-13T01:00:48;100710.94;;;17.90;77.27
79376;BME280;68846;53.150;18.136;2023-07-13T01:03:16;100715.48;;;17.86;76.99
79376;BME280;68846;53.150;18.136;2023-07-13T01:05:47;100722.04;;;17.77;76.99
79376;BME280;68846;53.150;18.136;2023-07-13T01:08:14;100715.98;;;17.66;77.18
79376;BME280;68846;53.150;18.136;2023-07-13T01:10:51;100717.36;;;17.67;77.01
79376;BME280;68846;53.150;18.136;2023-07-13T01:13:17;100711.02;;;17.64;77.37
79376;BME280;68846;53.150;18.136;2023-07-13T01:15:46;100711.40;;;17.63;77.22
79376;BME280;68846;53.150;18.136;2023-07-13T01:18:16;100710.46;;;17.65;77.23
79376;BME280;68846;53.150;18.136;2023-07-13T01:21:03;100704.77;;;17.65;77.03
79376;BME280;68846;53.150;18.136;2023-07-13T01:23:31;100701.65;;;17.60;77.02
79376;BME280;68846;53.150;18.136;2023-07-13T01:25:59;100692.34;;;17.53;76.96
79376;BME280;68846;53.150;18.136;2023-07-13T01:28:27;100688.04;;;17.44;76.90
79376;BME280;68846;53.150;18.136;2023-07-13T01:30:55;100688.20;;;17.34;77.00
79376;BME280;68846;53.150;18.136;2023-07-13T01:33:23;100688.05;;;17.32;77.28
79376;BME280;68846;53.150;18.136;2023-07-13T01:35:49;100688.95;;;17.32;77.30
79376;BME280;68846;53.150;18.136;2023-07-13T01:38:18;100697.42;;;17.36;77.45
79376;BME280;68846;53.150;18.136;2023-07-13T01:40:45;100700.58;;;17.39;77.37
79376;BME280;68846;53.150;18.136;2023-07-13T01:43:12;100701.92;;;17.44;77.27
79376;BME280;68846;53.150;18.136;2023-07-13T01:45:38;100699.55;;;17.47;77.41
79376;BME280;68846;53.150;18.136;2023-07-13T01:48:05;100705.00;;;17.52;77.50
79376;BME280;68846;53.150;18.136;2023-07-13T01:50:33;100710.48;;;17.54;77.51
79376;BME280;68846;53.150;18.136;2023-07-13T01:53:00;100714.95;;;17.53;77.35
79376;BME280;68846;53.150;18.136;2023-07-13T01:55:28;100723.64;;;17.55;77.52
79376;BME280;68846;53.150;18.136;2023-07-13T01:57:56;100727.17;;;17.56;77.42
79376;BME280;68846;53.150;18.136;2023-07-13T02:00:23;100731.95;;;17.59;77.45
79376;BME280;68846;53.150;18.136;2023-07-13T02:02:50;100727.99;;;17.60;77.15
79376;BME280;68846;53.150;18.136;2023-07-13T02:05:17;100718.57;;;17.59;77.31
79376;BME280;68846;53.150;18.136;2023-07-13T02:07:44;100716.40;;;17.61;76.98
79376;BME280;68846;53.150;18.136;2023-07-13T02:10:11;100717.52;;;17.59;76.95
79376;BME280;68846;53.150;18.136;2023-07-13T02:12:38;100719.48;;;17.59;76.97
79376;BME280;68846;53.150;18.136;2023-07-13T02:15:05;100718.04;;;17.59;77.18
79376;BME280;68846;53.150;18.136;2023-07-13T02:17:31;100715.92;;;17.59;77.37
79376;BME280;68846;53.150;18.136;2023-07-13T02:19:58;100706.53;;;17.56;77.37
79376;BME280;68846;53.150;18.136;2023-07-13T02:22:24;100709.64;;;17.61;77.28
79376;BME280;68846;53.150;18.136;2023-07-13T02:24:50;100705.69;;;17.64;77.35
79376;BME280;68846;53.150;18.136;2023-07-13T02:27:18;100699.59;;;17.65;77.16
79376;BME280;68846;53.150;18.136;2023-07-13T02:29:45;100693.56;;;17.64;76.97
79376;BME280;68846;53.150;18.136;2023-07-13T02:32:12;100694.30;;;17.63;76.83
79376;BME280;68846;53.150;18.136;2023-07-13T02:34:41;100692.02;;;17.61;76.87
79376;BME280;68846;53.150;18.136;2023-07-13T02:37:07;100687.10;;;17.57;77.06
79376;BME280;68846;53.150;18.136;2023-07-13T02:39:35;100694.94;;;17.56;77.13
79376;BME280;68846;53.150;18.136;2023-07-13T02:42:02;100691.00;;;17.58;77.25
79376;BME280;68846;53.150;18.136;2023-07-13T02:44:29;100689.49;;;17.63;77.29
79376;BME280;68846;53.150;18.136;2023-07-13T02:46:55;100684.73;;;17.61;77.31
79376;BME280;68846;53.150;18.136;2023-07-13T02:49:21;100703.09;;;17.70;77.30
79376;BME280;68846;53.150;18.136;2023-07-13T02:51:48;100700.05;;;17.71;77.50
79376;BME280;68846;53.150;18.136;2023-07-13T02:54:14;100699.70;;;17.72;77.64
79376;BME280;68846;53.150;18.136;2023-07-13T02:56:41;100696.83;;;17.73;77.63
79376;BME280;68846;53.150;18.136;2023-07-13T02:59:07;100693.98;;;17.73;77.49
79376;BME280;68846;53.150;18.136;2023-07-13T03:01:34;100695.61;;;17.70;77.58
79376;BME280;68846;53.150;18.136;2023-07-13T03:04:02;100694.10;;;17.65;77.52
79376;BME280;68846;53.150;18.136;2023-07-13T03:06:28;100684.86;;;17.63;77.60
79376;BME280;68846;53.150;18.136;2023-07-13T03:08:56;100685.56;;;17.64;77.80
79376;BME280;68846;53.150;18.136;2023-07-13T03:11:23;100687.98;;;17.67;77.79
79376;BME280;68846;53.150;18.136;2023-07-13T03:13:57;100691.86;;;17.71;77.91
79376;BME280;68846;53.150;18.136;2023-07-13T03:16:24;100687.20;;;17.73;77.98
79376;BME280;68846;53.150;18.136;2023-07-13T03:18:51;100688.48;;;17.71;77.90
79376;BME280;68846;53.150;18.136;2023-07-13T03:21:17;100689.20;;;17.68;78.01
79376;BME280;68846;53.150;18.136;2023-07-13T03:23:44;100691.16;;;17.69;77.81
79376;BME280;68846;53.150;18.136;2023-07-13T03:26:13;100685.64;;;17.69;77.49
79376;BME280;68846;53.150;18.136;2023-07-13T03:28:40;100690.44;;;17.70;77.36
79376;BME280;68846;53.150;18.136;2023-07-13T03:31:10;100698.41;;;17.73;77.62
79376;BME280;68846;53.150;18.136;2023-07-13T03:33:37;100701.95;;;17.76;77.78
79376;BME280;68846;53.150;18.136;2023-07-13T03:36:05;100705.45;;;17.78;77.81
79376;BME280;68846;53.150;18.136;2023-07-13T03:38:32;100710.57;;;17.80;77.72
79376;BME280;68846;53.150;18.136;2023-07-13T03:40:59;100715.55;;;17.82;77.77
79376;BME280;68846;53.150;18.136;2023-07-13T03:43:26;100710.55;;;17.82;77.93
79376;BME280;68846;53.150;18.136;2023-07-13T03:46:18;100714.96;;;17.84;77.92
79376;BME280;68846;53.150;18.136;2023-07-13T03:48:46;100720.48;;;17.84;77.97
79376;BME280;68846;53.150;18.136;2023-07-13T03:51:14;100716.38;;;17.85;78.10
79376;BME280;68846;53.150;18.136;2023-07-13T03:53:42;100719.35;;;17.88;78.12
79376;BME280;68846;53.150;18.136;2023-07-13T03:56:09;100723.56;;;17.91;78.06
79376;BME280;68846;53.150;18.136;2023-07-13T03:58:38;100726.17;;;17.95;78.09
79376;BME280;68846;53.150;18.136;2023-07-13T04:01:10;100732.14;;;17.99;78.18
79376;BME280;68846;53.150;18.136;2023-07-13T04:03:39;100737.40;;;18.04;78.07
79376;BME280;68846;53.150;18.136;2023-07-13T04:06:07;100735.19;;;18.08;77.89
79376;BME280;68846;53.150;18.136;2023-07-13T04:08:36;100738.02;;;18.09;77.93
79376;BME280;68846;53.150;18.136;2023-07-13T04:11:03;100741.23;;;18.08;78.03
79376;BME280;68846;53.150;18.136;2023-07-13T04:13:30;100742.34;;;18.07;78.06
79376;BME280;68846;53.150;18.136;2023-07-13T04:15:56;100749.30;;;18.06;78.10
79376;BME280;68846;53.150;18.136;2023-07-13T04:18:22;100755.00;;;18.06;78.13
79376;BME280;68846;53.150;18.136;2023-07-13T04:20:50;100751.98;;;18.06;77.89
79376;BME280;68846;53.150;18.136;2023-07-13T04:23:17;100748.44;;;18.05;78.05
79376;BME280;68846;53.150;18.136;2023-07-13T04:25:43;100746.08;;;18.07;78.00
79376;BME280;68846;53.150;18.136;2023-07-13T04:28:10;100744.77;;;18.10;78.00
79376;BME280;68846;53.150;18.136;2023-07-13T04:30:36;100739.23;;;18.10;77.96
79376;BME280;68846;53.150;18.136;2023-07-13T04:33:02;100729.67;;;18.08;77.91
79376;BME280;68846;53.150;18.136;2023-07-13T04:35:54;100729.50;;;18.07;77.90
79376;BME280;68846;53.150;18.136;2023-07-13T04:38:24;100742.32;;;18.08;78.01
79376;BME280;68846;53.150;18.136;2023-07-13T04:40:51;100754.42;;;18.08;77.94
79376;BME280;68846;53.150;18.136;2023-07-13T04:43:18;100757.03;;;18.12;78.04
79376;BME280;68846;53.150;18.136;2023-07-13T04:45:45;100755.52;;;18.15;77.80
79376;BME280;68846;53.150;18.136;2023-07-13T04:48:11;100748.90;;;18.17;77.36
79376;BME280;68846;53.150;18.136;2023-07-13T04:50:37;100747.12;;;18.18;77.36
79376;BME280;68846;53.150;18.136;2023-07-13T04:53:04;100757.77;;;18.30;77.17
79376;BME280;68846;53.150;18.136;2023-07-13T04:55:31;100772.44;;;18.35;76.86
79376;BME280;68846;53.150;18.136;2023-07-13T04:57:57;100788.22;;;18.40;77.29
79376;BME280;68846;53.150;18.136;2023-07-13T05:00:29;100793.29;;;18.45;77.06
79376;BME280;68846;53.150;18.136;2023-07-13T05:02:57;100789.58;;;18.52;76.75
79376;BME280;68846;53.150;18.136;2023-07-13T05:05:26;100789.29;;;18.58;77.10
79376;BME280;68846;53.150;18.136;2023-07-13T05:07:53;100784.70;;;18.64;77.04
79376;BME280;68846;53.150;18.136;2023-07-13T05:10:20;100787.98;;;18.71;77.21
79376;BME280;68846;53.150;18.136;2023-07-13T05:12:46;100789.97;;;18.78;77.11
79376;BME280;68846;53.150;18.136;2023-07-13T05:15:13;100792.37;;;18.83;77.06
79376;BME280;68846;53.150;18.136;2023-07-13T05:17:39;100783.79;;;18.83;76.70
79376;BME280;68846;53.150;18.136;2023-07-13T05:20:07;100789.88;;;18.91;76.20
79376;BME280;68846;53.150;18.136;2023-07-13T05:22:34;100779.63;;;18.86;76.37
79376;BME280;68846;53.150;18.136;2023-07-13T05:25:09;100787.86;;;18.93;76.91
79376;BME280;68846;53.150;18.136;2023-07-13T05:27:36;100791.39;;;18.95;77.32
79376;BME280;68846;53.150;18.136;2023-07-13T05:30:03;100788.34;;;19.04;77.07
79376;BME280;68846;53.150;18.136;2023-07-13T05:32:29;100783.61;;;19.08;76.62
79376;BME280;68846;53.150;18.136;2023-07-13T05:34:55;100792.03;;;19.22;76.65
79376;BME280;68846;53.150;18.136;2023-07-13T05:37:22;100796.50;;;19.30;76.14
79376;BME280;68846;53.150;18.136;2023-07-13T05:39:48;100802.08;;;19.36;75.89
79376;BME280;68846;53.150;18.136;2023-07-13T05:42:14;100805.14;;;19.41;75.71
79376;BME280;68846;53.150;18.136;2023-07-13T05:44:41;100813.78;;;19.46;75.63
79376;BME280;68846;53.150;18.136;2023-07-13T05:47:07;100815.85;;;19.50;75.43
79376;BME280;68846;53.150;18.136;2023-07-13T05:49:33;100815.55;;;19.55;75.19
79376;BME280;68846;53.150;18.136;2023-07-13T05:51:59;100808.71;;;19.57;74.95
79376;BME280;68846;53.150;18.136;2023-07-13T05:54:26;100807.20;;;19.62;75.07
79376;BME280;68846;53.150;18.136;2023-07-13T05:56:53;100804.23;;;19.66;75.08
79376;BME280;68846;53.150;18.136;2023-07-13T05:59:19;100805.89;;;19.71;75.19
79376;BME280;68846;53.150;18.136;2023-07-13T06:01:45;100807.20;;;19.76;75.11
79376;BME280;68846;53.150;18.136;2023-07-13T06:04:12;100808.84;;;19.82;74.84
79376;BME280;68846;53.150;18.136;2023-07-13T06:06:38;100809.27;;;19.86;75.11
79376;BME280;68846;53.150;18.136;2023-07-13T06:09:04;100809.54;;;19.90;74.94
79376;BME280;68846;53.150;18.136;2023-07-13T06:11:31;100811.92;;;19.94;74.66
79376;BME280;68846;53.150;18.136;2023-07-13T06:13:57;100807.00;;;19.98;74.98
79376;BME280;68846;53.150;18.136;2023-07-13T06:16:24;100804.55;;;20.03;75.27
79376;BME280;68846;53.150;18.136;2023-07-13T06:18:50;100803.16;;;20.08;75.23
79376;BME280;68846;53.150;18.136;2023-07-13T06:21:18;100800.45;;;20.10;74.75
79376;BME280;68846;53.150;18.136;2023-07-13T06:23:46;100798.40;;;20.12;74.88
79376;BME280;68846;53.150;18.136;2023-07-13T06:26:13;100796.26;;;20.12;73.58
79376;BME280;68846;53.150;18.136;2023-07-13T06:28:40;100796.86;;;20.10;73.69
79376;BME280;68846;53.150;18.136;2023-07-13T06:31:08;100802.98;;;20.08;73.64
79376;BME280;68846;53.150;18.136;2023-07-13T06:33:35;100802.84;;;20.07;73.89
79376;BME280;68846;53.150;18.136;2023-07-13T06:36:05;100803.50;;;20.09;73.22
79376;BME280;68846;53.150;18.136;2023-07-13T06:38:32;100802.71;;;20.12;73.32
79376;BME280;68846;53.150;18.136;2023-07-13T06:41:00;100801.33;;;20.17;74.01
79376;BME280;68846;53.150;18.136;2023-07-13T06:43:28;100804.29;;;20.26;74.11
79376;BME280;68846;53.150;18.136;2023-07-13T06:45:57;100811.48;;;20.38;73.85
79376;BME280;68846;53.150;18.136;2023-07-13T06:48:25;100808.19;;;20.48;73.50
79376;BME280;68846;53.150;18.136;2023-07-13T06:50:52;100794.04;;;20.48;73.15
79376;BME280;68846;53.150;18.136;2023-07-13T06:53:19;100802.77;;;20.56;73.44
79376;BME280;68846;53.150;18.136;2023-07-13T06:55:46;100812.48;;;20.61;73.66
79376;BME280;68846;53.150;18.136;2023-07-13T06:58:16;100818.61;;;20.65;73.10
79376;BME280;68846;53.150;18.136;2023-07-13T07:00:43;100829.34;;;20.72;71.68
79376;BME280;68846;53.150;18.136;2023-07-13T07:03:09;100834.10;;;20.74;71.80
79376;BME280;68846;53.150;18.136;2023-07-13T07:05:36;100831.61;;;20.80;72.55
79376;BME280;68846;53.150;18.136;2023-07-13T07:08:04;100827.45;;;20.88;73.05
79376;BME280;68846;53.150;18.136;2023-07-13T07:10:31;100826.85;;;20.96;72.96
79376;BME280;68846;53.150;18.136;2023-07-13T07:12:58;100825.25;;;21.01;72.64
79376;BME280;68846;53.150;18.136;2023-07-13T07:15:25;100827.52;;;21.09;72.70
79376;BME280;68846;53.150;18.136;2023-07-13T07:17:52;100832.74;;;21.14;72.37
79376;BME280;68846;53.150;18.136;2023-07-13T07:20:19;100834.63;;;21.18;70.98
79376;BME280;68846;53.150;18.136;2023-07-13T07:22:47;100838.95;;;21.22;71.38
79376;BME280;68846;53.150;18.136;2023-07-13T07:25:14;100839.55;;;21.26;71.43
79376;BME280;68846;53.150;18.136;2023-07-13T07:27:40;100836.80;;;21.29;70.55
79376;BME280;68846;53.150;18.136;2023-07-13T07:30:07;100830.14;;;21.30;69.69
79376;BME280;68846;53.150;18.136;2023-07-13T07:32:34;100829.75;;;21.31;68.95
79376;BME280;68846;53.150;18.136;2023-07-13T07:35:01;100821.59;;;21.34;68.96
79376;BME280;68846;53.150;18.136;2023-07-13T07:37:28;100826.48;;;21.38;68.60
79376;BME280;68846;53.150;18.136;2023-07-13T07:39:54;100822.48;;;21.40;68.86
79376;BME280;68846;53.150;18.136;2023-07-13T07:42:21;100828.91;;;21.42;68.52
79376;BME280;68846;53.150;18.136;2023-07-13T07:44:47;100826.91;;;21.42;68.32
79376;BME280;68846;53.150;18.136;2023-07-13T07:47:14;100826.14;;;21.44;68.75
79376;BME280;68846;53.150;18.136;2023-07-13T07:49:41;100823.74;;;21.46;69.13
79376;BME280;68846;53.150;18.136;2023-07-13T07:52:07;100816.04;;;21.45;68.63
79376;BME280;68846;53.150;18.136;2023-07-13T07:54:33;100819.48;;;21.50;68.42
79376;BME280;68846;53.150;18.136;2023-07-13T07:56:59;100824.14;;;21.55;67.27
79376;BME280;68846;53.150;18.136;2023-07-13T07:59:26;100834.64;;;21.63;66.51
79376;BME280;68846;53.150;18.136;2023-07-13T08:01:52;100838.94;;;21.69;66.01
79376;BME280;68846;53.150;18.136;2023-07-13T08:04:18;100842.15;;;21.75;65.50
79376;BME280;68846;53.150;18.136;2023-07-13T08:06:45;100845.71;;;21.81;66.03
79376;BME280;68846;53.150;18.136;2023-07-13T08:09:11;100850.71;;;21.87;65.55
79376;BME280;68846;53.150;18.136;2023-07-13T08:11:37;100849.36;;;21.90;64.64
79376;BME280;68846;53.150;18.136;2023-07-13T08:14:03;100848.11;;;21.95;64.99
79376;BME280;68846;53.150;18.136;2023-07-13T08:16:29;100848.83;;;22.01;64.39
79376;BME280;68846;53.150;18.136;2023-07-13T08:18:56;100847.65;;;22.03;63.12
79376;BME280;68846;53.150;18.136;2023-07-13T08:21:22;100848.80;;;22.06;63.39
79376;BME280;68846;53.150;18.136;2023-07-13T08:23:49;100846.44;;;22.08;62.66
79376;BME280;68846;53.150;18.136;2023-07-13T08:26:15;100843.55;;;22.08;61.95
79376;BME280;68846;53.150;18.136;2023-07-13T08:28:41;100840.83;;;22.09;61.80
79376;BME280;68846;53.150;18.136;2023-07-13T08:31:07;100834.92;;;22.09;62.17
79376;BME280;68846;53.150;18.136;2023-07-13T08:33:35;100832.41;;;22.09;61.97
79376;BME280;68846;53.150;18.136;2023-07-13T08:36:02;100835.85;;;22.14;62.37
79376;BME280;68846;53.150;18.136;2023-07-13T08:38:29;100831.02;;;22.19;62.09
79376;BME280;68846;53.150;18.136;2023-07-13T08:40:56;100825.00;;;22.22;60.44
79376;BME280;68846;53.150;18.136;2023-07-13T08:43:29;100817.57;;;22.23;60.31
79376;BME280;68846;53.150;18.136;2023-07-13T08:46:13;100821.66;;;22.35;60.50
79376;BME280;68846;53.150;18.136;2023-07-13T08:52:02;100815.05;;;22.49;59.61
79376;BME280;68846;53.150;18.136;2023-07-13T08:54:38;100806.62;;;22.54;60.45
79376;BME280;68846;53.150;18.136;2023-07-13T08:57:12;100813.26;;;22.58;60.46
79376;BME280;68846;53.150;18.136;2023-07-13T08:59:39;100810.05;;;22.63;60.01
79376;BME280;68846;53.150;18.136;2023-07-13T09:10:42;100825.55;;;22.86;58.44
79376;BME280;68846;53.150;18.136;2023-07-13T09:13:37;100831.05;;;22.78;58.00
79376;BME280;68846;53.150;18.136;2023-07-13T09:16:06;100837.41;;;22.71;57.90
79376;BME280;68846;53.150;18.136;2023-07-13T09:18:34;100839.66;;;22.63;58.43
79376;BME280;68846;53.150;18.136;2023-07-13T09:21:13;100835.95;;;22.56;58.93
79376;BME280;68846;53.150;18.136;2023-07-13T09:23:42;100836.21;;;22.49;59.08
79376;BME280;68846;53.150;18.136;2023-07-13T09:26:23;100833.55;;;22.43;58.01
79376;BME280;68846;53.150;18.136;2023-07-13T09:29:26;100828.20;;;22.38;57.92
79376;BME280;68846;53.150;18.136;2023-07-13T09:31:55;100833.36;;;22.39;57.85
79376;BME280;68846;53.150;18.136;2023-07-13T09:34:25;100834.08;;;22.43;57.61
79376;BME280;68846;53.150;18.136;2023-07-13T09:36:52;100834.05;;;22.50;56.86
79376;BME280;68846;53.150;18.136;2023-07-13T09:39:37;100834.67;;;22.57;56.13
79376;BME280;68846;53.150;18.136;2023-07-13T09:42:14;100836.36;;;22.60;54.98
79376;BME280;68846;53.150;18.136;2023-07-13T09:47:19;100825.81;;;22.68;54.55
79376;BME280;68846;53.150;18.136;2023-07-13T09:49:54;100816.20;;;22.71;54.32
79376;BME280;68846;53.150;18.136;2023-07-13T09:52:21;100822.45;;;22.82;54.05
79376;BME280;68846;53.150;18.136;2023-07-13T09:54:50;100814.83;;;22.89;52.81
79376;BME280;68846;53.150;18.136;2023-07-13T09:57:18;100814.63;;;22.99;53.00
79376;BME280;68846;53.150;18.136;2023-07-13T09:59:47;100811.64;;;23.07;51.53
79376;BME280;68846;53.150;18.136;2023-07-13T10:02:31;100805.06;;;23.11;51.91
79376;BME280;68846;53.150;18.136;2023-07-13T10:05:06;100805.31;;;23.13;51.24
79376;BME280;68846;53.150;18.136;2023-07-13T10:07:38;100804.31;;;23.15;51.57
79376;BME280;68846;53.150;18.136;2023-07-13T10:10:14;100803.41;;;23.24;50.72
79376;BME280;68846;53.150;18.136;2023-07-13T10:12:41;100799.51;;;23.33;50.23
79376;BME280;68846;53.150;18.136;2023-07-13T10:15:15;100802.36;;;23.37;49.53
79376;BME280;68846;53.150;18.136;2023-07-13T10:17:41;100797.72;;;23.41;49.34
79376;BME280;68846;53.150;18.136;2023-07-13T10:20:10;100798.89;;;23.43;49.78
79376;BME280;68846;53.150;18.136;2023-07-13T10:25:19;100808.98;;;23.47;48.55
79376;BME280;68846;53.150;18.136;2023-07-13T10:27:49;100807.84;;;23.48;48.35
79376;BME280;68846;53.150;18.136;2023-07-13T10:30:26;100808.08;;;23.52;50.36
79376;BME280;68846;53.150;18.136;2023-07-13T10:32:57;100805.02;;;23.56;52.12
79376;BME280;68846;53.150;18.136;2023-07-13T10:35:25;100806.05;;;23.58;52.92
79376;BME280;68846;53.150;18.136;2023-07-13T10:38:11;100812.95;;;23.60;53.42
79376;BME280;68846;53.150;18.136;2023-07-13T10:41:01;100805.70;;;23.61;53.67
79376;BME280;68846;53.150;18.136;2023-07-13T10:43:42;100799.27;;;23.61;54.07
79376;BME280;68846;53.150;18.136;2023-07-13T10:46:18;100805.91;;;23.74;54.31
79376;BME280;68846;53.150;18.136;2023-07-13T10:48:47;100803.86;;;23.80;54.28
79376;BME280;68846;53.150;18.136;2023-07-13T10:51:17;100803.30;;;23.85;54.22
79376;BME280;68846;53.150;18.136;2023-07-13T10:53:46;100806.27;;;23.91;53.89
79376;BME280;68846;53.150;18.136;2023-07-13T10:56:23;100805.06;;;23.98;53.97
79376;BME280;68846;53.150;18.136;2023-07-13T11:01:40;100803.93;;;24.33;53.57
79376;BME280;68846;53.150;18.136;2023-07-13T11:04:11;100802.97;;;24.47;53.27
79376;BME280;68846;53.150;18.136;2023-07-13T11:06:40;100799.63;;;24.53;53.12
79376;BME280;68846;53.150;18.136;2023-07-13T11:17:48;100807.14;;;24.67;53.64
79376;BME280;68846;53.150;18.136;2023-07-13T11:22:47;100811.84;;;24.70;54.20
79376;BME280;68846;53.150;18.136;2023-07-13T11:25:41;100808.51;;;24.99;53.15
79376;BME280;68846;53.150;18.136;2023-07-13T11:28:14;100803.72;;;25.21;52.66
79376;BME280;68846;53.150;18.136;2023-07-13T11:38:21;100801.34;;;25.10;52.90
79376;BME280;68846;53.150;18.136;2023-07-13T11:40:51;100805.21;;;25.12;52.95
79376;BME280;68846;53.150;18.136;2023-07-13T11:43:19;100802.14;;;25.16;53.17
79376;BME280;68846;53.150;18.136;2023-07-13T11:45:50;100809.60;;;25.19;53.09
79376;BME280;68846;53.150;18.136;2023-07-13T11:48:29;100808.98;;;25.12;52.98
79376;BME280;68846;53.150;18.136;2023-07-13T11:51:03;100818.70;;;25.05;53.18
79376;BME280;68846;53.150;18.136;2023-07-13T11:53:39;100822.20;;;24.95;53.19
79376;BME280;68846;53.150;18.136;2023-07-13T11:56:06;100826.85;;;24.84;52.72
79376;BME280;68846;53.150;18.136;2023-07-13T11:58:34;100826.68;;;24.72;52.83
79376;BME280;68846;53.150;18.136;2023-07-13T12:01:02;100821.00;;;24.63;53.07
79376;BME280;68846;53.150;18.136;2023-07-13T12:03:32;100823.23;;;24.57;53.45
79376;BME280;68846;53.150;18.136;2023-07-13T12:06:06;100821.87;;;24.51;53.32
79376;BME280;68846;53.150;18.136;2023-07-13T12:08:45;100821.16;;;24.47;53.34
79376;BME280;68846;53.150;18.136;2023-07-13T12:11:18;100818.01;;;24.49;53.57
79376;BME280;68846;53.150;18.136;2023-07-13T12:13:46;100808.44;;;24.69;53.63
79376;BME280;68846;53.150;18.136;2023-07-13T12:16:26;100807.78;;;24.88;53.37
79376;BME280;68846;53.150;18.136;2023-07-13T12:18:54;100804.30;;;24.97;53.10
79376;BME280;68846;53.150;18.136;2023-07-13T12:21:27;100805.45;;;25.07;53.08
79376;BME280;68846;53.150;18.136;2023-07-13T12:23:55;100800.66;;;25.17;52.58
79376;BME280;68846;53.150;18.136;2023-07-13T12:26:21;100804.42;;;25.21;52.49
79376;BME280;68846;53.150;18.136;2023-07-13T12:28:51;100805.39;;;25.23;52.10
79376;BME280;68846;53.150;18.136;2023-07-13T12:31:33;100805.70;;;25.21;51.80
79376;BME280;68846;53.150;18.136;2023-07-13T12:34:07;100797.80;;;25.17;50.98
79376;BME280;68846;53.150;18.136;2023-07-13T12:36:36;100793.60;;;25.10;50.34
79376;BME280;68846;53.150;18.136;2023-07-13T12:39:24;100794.85;;;25.02;50.46
79376;BME280;68846;53.150;18.136;2023-07-13T12:41:53;100793.30;;;24.97;50.92
79376;BME280;68846;53.150;18.136;2023-07-13T12:44:27;100783.52;;;24.98;50.54
79376;BME280;68846;53.150;18.136;2023-07-13T12:47:06;100782.98;;;25.21;50.84
79376;BME280;68846;53.150;18.136;2023-07-13T12:50:42;100785.13;;;25.65;50.16
79376;BME280;68846;53.150;18.136;2023-07-13T12:52:36;100785.11;;;26.09;48.69
79376;BME280;68846;53.150;18.136;2023-07-13T12:55:15;100783.59;;;26.31;47.36
79376;BME280;68846;53.150;18.136;2023-07-13T13:00:21;100782.98;;;26.86;42.57
79376;BME280;68846;53.150;18.136;2023-07-13T13:02:50;100774.47;;;26.90;41.47
79376;BME280;68846;53.150;18.136;2023-07-13T13:05:16;100778.27;;;26.83;42.22
79376;BME280;68846;53.150;18.136;2023-07-13T13:07:43;100774.80;;;26.77;41.79
79376;BME280;68846;53.150;18.136;2023-07-13T13:10:13;100787.65;;;26.77;41.39
79376;BME280;68846;53.150;18.136;2023-07-13T13:12:40;100789.36;;;26.72;41.03
79376;BME280;68846;53.150;18.136;2023-07-13T13:15:10;100785.69;;;26.70;41.11
79376;BME280;68846;53.150;18.136;2023-07-13T13:17:39;100791.60;;;26.80;40.54
79376;BME280;68846;53.150;18.136;2023-07-13T13:20:17;100789.90;;;26.85;39.91
79376;BME280;68846;53.150;18.136;2023-07-13T13:22:44;100792.65;;;26.81;40.51
79376;BME280;68846;53.150;18.136;2023-07-13T13:25:11;100785.87;;;26.66;41.95
79376;BME280;68846;53.150;18.136;2023-07-13T13:27:39;100796.13;;;26.57;43.74
79376;BME280;68846;53.150;18.136;2023-07-13T13:30:14;100790.12;;;26.41;44.46
79376;BME280;68846;53.150;18.136;2023-07-13T13:32:44;100792.82;;;26.34;45.30
79376;BME280;68846;53.150;18.136;2023-07-13T13:35:19;100800.08;;;26.54;45.77